Time;durP1;ratioP1;P1;durP2;ratioP2;P2;SDS_P1;SDS_P2;PMS_P1;PMS_P2;Temp;Humidity;BMP_temperature;BMP_pressure;BME280_temperature;BME280_humidity;BME280_pressure;Samples;Min_cycle;Max_cycle;Signal;HPM_P1;HPM_P2
2022/03/25 00:03:08;;;;;;;21.17;16.08;;;14.50;61.00;;;;;;10888475;32;20062;-68
2022/03/25 00:09:10;;;;;;;24.87;15.63;;;14.40;61.90;;;;;;10905826;32;20309;-68
2022/03/25 00:15:13;;;;;;;22.33;16.87;;;14.20;62.30;;;;;;10905529;32;20042;-69
2022/03/25 00:21:15;;;;;;;29.90;23.50;;;14.20;62.60;;;;;;10905315;32;20023;-69
2022/03/25 00:27:17;;;;;;;32.05;25.75;;;14.20;62.00;;;;;;10905144;32;20055;-69
2022/03/25 00:33:20;;;;;;;24.75;17.10;;;14.20;62.10;;;;;;10905065;32;20015;-69
2022/03/25 00:39:22;;;;;;;23.05;16.17;;;14.20;62.40;;;;;;10904765;32;20050;-69
2022/03/25 00:45:25;;;;;;;17.62;12.43;;;14.00;62.50;;;;;;10904791;32;20046;-69
2022/03/25 00:51:28;;;;;;;21.83;15.05;;;13.80;63.00;;;;;;10904544;32;20081;-69
2022/03/25 00:57:30;;;;;;;21.55;15.75;;;13.70;63.40;;;;;;10904397;32;20426;-71
2022/03/25 01:03:32;;;;;;;22.40;16.65;;;13.70;63.50;;;;;;10900068;32;20035;-71
2022/03/25 01:09:34;;;;;;;27.25;23.75;;;13.70;63.70;;;;;;10904154;32;20062;-71
2022/03/25 01:15:37;;;;;;;19.20;14.73;;;13.70;63.90;;;;;;10904140;32;20031;-71
2022/03/25 01:21:39;;;;;;;20.75;14.35;;;13.60;64.00;;;;;;10901983;32;20027;-69
2022/03/25 01:27:44;;;;;;;24.90;17.40;;;13.60;64.20;;;;;;10903823;32;20027;-71
2022/03/25 01:33:46;;;;;;;26.27;22.62;;;13.50;64.40;;;;;;10903738;32;20023;-69
2022/03/25 01:39:48;;;;;;;26.55;20.20;;;13.60;64.50;;;;;;10903544;32;20050;-69
2022/03/25 01:45:51;;;;;;;35.28;27.30;;;13.50;64.50;;;;;;10903471;32;20046;-69
2022/03/25 01:51:56;;;;;;;34.55;28.02;;;13.60;64.70;;;;;;10907586;32;20023;-69
2022/03/25 01:57:58;;;;;;;31.33;24.70;;;13.50;64.70;;;;;;10910486;32;20024;-69
2022/03/25 02:04:01;;;;;;;34.10;27.52;;;13.50;64.60;;;;;;10909832;32;20061;-71
2022/03/25 02:10:05;;;;;;;40.63;31.98;;;13.50;64.90;;;;;;10910078;32;20019;-69
2022/03/25 02:16:07;;;;;;;30.83;22.05;;;13.50;65.10;;;;;;10909789;32;20093;-68
2022/03/25 02:22:12;;;;;;;22.50;16.87;;;13.50;64.90;;;;;;10909582;32;20020;-69
2022/03/25 02:28:15;;;;;;;22.62;17.08;;;13.30;65.10;;;;;;10909374;32;20054;-68
2022/03/25 02:34:18;;;;;;;37.83;26.85;;;13.20;65.30;;;;;;10909133;32;20403;-69
2022/03/25 02:40:20;;;;;;;29.02;25.35;;;13.20;65.60;;;;;;10908954;32;20023;-69
2022/03/25 02:46:22;;;;;;;34.30;26.40;;;13.10;65.30;;;;;;10908785;32;20019;-68
2022/03/25 02:52:24;;;;;;;24.12;17.67;;;13.00;65.90;;;;;;10908752;32;20065;-69
2022/03/25 02:58:26;;;;;;;25.77;17.80;;;12.90;65.40;;;;;;10908324;32;20027;-69
2022/03/25 03:04:28;;;;;;;31.08;24.55;;;12.80;65.90;;;;;;10908151;32;20092;-69
2022/03/25 03:10:30;;;;;;;36.53;27.48;;;12.80;65.90;;;;;;10907825;32;20046;-69
2022/03/25 03:16:32;;;;;;;31.80;20.55;;;12.80;66.20;;;;;;10907596;32;20050;-69
2022/03/25 03:22:34;;;;;;;35.30;26.12;;;12.70;66.60;;;;;;10907460;32;20054;-68
2022/03/25 03:28:36;;;;;;;27.92;21.58;;;12.50;66.40;;;;;;10907262;32;20041;-68
2022/03/25 03:34:38;;;;;;;26.40;20.67;;;12.40;66.30;;;;;;10893784;32;20011;-68
2022/03/25 03:40:40;;;;;;;36.55;25.98;;;12.40;67.00;;;;;;10906717;32;20053;-69
2022/03/25 03:46:42;;;;;;;26.35;19.73;;;12.40;66.60;;;;;;10903200;32;20046;-69
2022/03/25 03:52:45;;;;;;;31.55;22.15;;;12.20;66.40;;;;;;10906433;32;20272;-69
2022/03/25 03:58:47;;;;;;;23.15;16.55;;;12.20;66.50;;;;;;10906310;32;20179;-71
2022/03/25 04:04:49;;;;;;;26.02;19.52;;;12.10;66.60;;;;;;10905896;32;20297;-69
2022/03/25 04:10:51;;;;;;;33.58;26.55;;;11.90;66.60;;;;;;10903033;32;20020;-69
2022/03/25 04:16:53;;;;;;;21.77;16.33;;;11.80;67.00;;;;;;10905260;32;20035;-71
2022/03/25 04:22:55;;;;;;;28.20;22.62;;;11.80;66.90;;;;;;10905316;32;20031;-69
2022/03/25 04:28:56;;;;;;;43.05;28.62;;;11.80;67.40;;;;;;10905212;32;20422;-69
2022/03/25 04:34:58;;;;;;;26.05;18.30;;;11.90;67.30;;;;;;10905086;32;20089;-71
2022/03/25 04:41:00;;;;;;;29.75;22.23;;;11.80;66.90;;;;;;10891479;32;20046;-69
2022/03/25 04:47:03;;;;;;;31.12;24.08;;;11.70;66.90;;;;;;10904524;32;20396;-71
2022/03/25 04:53:05;;;;;;;34.08;27.05;;;11.80;67.30;;;;;;10904516;32;20050;-69
2022/03/25 04:59:15;;;;;;;31.87;21.33;;;11.70;67.00;;;;;;10904416;32;20058;-69
2022/03/25 05:05:17;;;;;;;32.03;25.50;;;11.70;67.30;;;;;;10904221;32;20030;-69
2022/03/25 05:11:20;;;;;;;37.97;24.25;;;11.70;67.20;;;;;;10899970;32;20027;-69
2022/03/25 05:17:21;;;;;;;31.40;24.08;;;11.70;67.80;;;;;;10902458;32;20032;-71
2022/03/25 05:23:23;;;;;;;27.15;18.17;;;11.60;67.60;;;;;;10899649;32;20027;-71
2022/03/25 05:29:27;;;;;;;19.92;14.57;;;11.60;68.00;;;;;;10911504;32;20041;-71
2022/03/25 05:35:30;;;;;;;16.25;12.40;;;11.30;67.90;;;;;;10911137;32;20015;-69
2022/03/25 05:41:35;;;;;;;21.00;14.00;;;11.30;68.10;;;;;;10911160;32;20050;-71
2022/03/25 05:47:58;;;;;;;19.77;13.50;;;11.30;68.00;;;;;;10910824;32;20073;-69
2022/03/25 05:54:00;;;;;;;19.58;15.35;;;11.40;67.90;;;;;;10910566;32;20024;-71
2022/03/25 06:00:08;;;;;;;19.37;13.15;;;11.40;67.70;;;;;;10910395;32;20045;-70
2022/03/25 06:06:50;;;;;;;17.80;12.88;;;11.40;67.70;;;;;;10899487;32;20046;-70
2022/03/25 06:13:01;;;;;;;28.83;17.02;;;11.30;67.90;;;;;;10910009;32;20058;-71
2022/03/25 06:19:04;;;;;;;21.25;14.82;;;11.50;67.90;;;;;;10908551;32;20011;-71
2022/03/25 06:25:11;;;;;;;28.33;16.83;;;11.70;67.60;;;;;;10907163;32;20031;-70
2022/03/25 06:31:13;;;;;;;27.52;20.58;;;11.80;67.60;;;;;;10902985;32;20031;-70
2022/03/25 06:37:15;;;;;;;21.92;15.52;;;12.10;67.90;;;;;;10906044;32;20053;-71
2022/03/25 06:43:18;;;;;;;26.37;19.50;;;12.20;67.50;;;;;;10906886;32;20062;-71
2022/03/25 06:49:20;;;;;;;27.17;19.92;;;12.30;67.70;;;;;;10906679;32;20411;-68
2022/03/25 06:55:45;;;;;;;32.20;19.98;;;12.50;67.60;;;;;;10892627;32;20069;-70
2022/03/25 07:01:47;;;;;;;29.45;20.42;;;12.80;67.00;;;;;;10905909;32;20066;-70
2022/03/25 07:07:50;;;;;;;22.98;17.30;;;13.00;66.80;;;;;;10905575;32;20019;-69
2022/03/25 07:13:52;;;;;;;25.33;17.12;;;13.20;66.70;;;;;;10904405;32;20050;-69
2022/03/25 07:19:54;;;;;;;32.35;20.90;;;13.20;66.90;;;;;;10198777;27;22200521;-69
2022/03/25 07:25:56;;;;;;;22.23;15.75;;;13.40;67.20;;;;;;10850185;32;20062;-69
2022/03/25 07:31:58;;;;;;;32.10;19.37;;;13.50;67.40;;;;;;10867538;32;20089;-69
2022/03/25 07:38:00;;;;;;;25.15;18.50;;;13.70;67.30;;;;;;10869667;32;20020;-69
2022/03/25 07:44:02;;;;;;;17.10;12.88;;;13.70;66.20;;;;;;10865622;32;20036;-69
2022/03/25 07:50:05;;;;;;;23.33;15.77;;;13.70;66.10;;;;;;10868265;32;20042;-69
2022/03/25 07:56:07;;;;;;;27.58;18.35;;;13.80;66.30;;;;;;10868930;32;20344;-69
2022/03/25 08:02:11;;;;;;;29.10;18.15;;;13.90;66.10;;;;;;10868395;32;20331;-69
2022/03/25 08:08:13;;;;;;;31.58;20.67;;;13.90;66.30;;;;;;10866689;32;20324;-69
2022/03/25 08:14:17;;;;;;;22.40;11.15;;;14.10;66.60;;;;;;10868452;32;20020;-69
2022/03/25 08:20:33;;;;;;;30.35;15.23;;;14.20;66.40;;;;;;10867397;32;20035;-69
2022/03/25 08:32:57;;;;;;;27.92;15.23;;;14.40;65.80;;;;;;10867270;32;20032;-69
2022/03/25 08:38:59;;;;;;;14.77;10.32;;;14.50;65.50;;;;;;10854368;32;20020;-69
2022/03/25 08:45:01;;;;;;;26.45;17.10;;;14.50;66.20;;;;;;10867239;32;20032;-69
2022/03/25 08:51:04;;;;;;;22.42;14.40;;;14.60;65.60;;;;;;10866250;32;20023;-69
2022/03/25 08:57:06;;;;;;;16.33;11.23;;;14.70;65.80;;;;;;10866967;32;20020;-69
2022/03/25 09:03:08;;;;;;;16.48;11.68;;;14.90;65.20;;;;;;10866452;32;20074;-69
2022/03/25 09:09:10;;;;;;;21.87;16.15;;;15.00;64.60;;;;;;10853473;32;20019;-69
2022/03/25 09:15:14;;;;;;;21.83;15.70;;;15.00;63.70;;;;;;10866298;32;20043;-69
2022/03/25 09:21:16;;;;;;;18.48;12.68;;;15.10;63.60;;;;;;10864031;32;20074;-69
2022/03/25 09:27:18;;;;;;;36.35;23.65;;;15.20;64.10;;;;;;10866301;32;20081;-69
2022/03/25 09:33:20;;;;;;;24.15;14.07;;;15.40;62.90;;;;;;10866006;32;20027;-68
2022/03/25 09:39:22;;;;;;;23.48;15.10;;;15.50;62.40;;;;;;10842033;32;20340;-71
2022/03/25 09:45:27;;;;;;;24.37;16.95;;;15.70;62.40;;;;;;10851269;32;20364;-71
2022/03/25 09:51:29;;;;;;;22.70;16.17;;;15.80;62.10;;;;;;10842659;32;20082;-70
2022/03/25 09:57:31;;;;;;;37.80;27.15;;;15.90;61.60;;;;;;10844874;32;20050;-71
2022/03/25 10:03:41;;;;;;;35.20;25.15;;;16.10;60.40;;;;;;10828793;33;20329;-71
2022/03/25 10:09:48;;;;;;;36.35;25.23;;;16.20;59.80;;;;;;10828925;32;20046;-71
2022/03/25 10:15:50;;;;;;;31.67;20.05;;;16.30;59.80;;;;;;10835314;32;20054;-70
2022/03/25 10:21:57;;;;;;;27.92;16.62;;;16.50;58.80;;;;;;10835056;32;20058;-70
2022/03/25 10:28:00;;;;;;;20.85;13.52;;;16.80;58.30;;;;;;10867374;32;20024;-71
2022/03/25 10:34:02;;;;;;;57.88;33.22;;;17.00;57.50;;;;;;10869932;32;20118;-71
2022/03/25 10:40:07;;;;;;;56.75;31.90;;;17.30;57.90;;;;;;10834378;32;20020;-69
2022/03/25 10:46:26;;;;;;;34.28;17.33;;;17.50;56.70;;;;;;10855713;32;20380;-67
2022/03/25 10:52:34;;;;;;;44.53;29.90;;;17.70;54.00;;;;;;10829341;32;20055;-67
2022/03/25 10:58:36;;;;;;;35.87;24.40;;;17.90;53.80;;;;;;10832758;32;20019;-68
2022/03/25 11:04:40;;;;;;;34.63;25.12;;;18.20;53.00;;;;;;10833626;32;20074;-70
2022/03/25 11:10:42;;;;;;;47.40;33.60;;;18.40;53.00;;;;;;10833560;32;20066;-67
2022/03/25 11:16:57;;;;;;;30.48;20.77;;;18.80;52.80;;;;;;10833154;32;20332;-67
2022/03/25 11:23:02;;;;;;;29.33;22.73;;;19.10;51.20;;;;;;10832015;32;20332;-70
2022/03/25 11:29:08;;;;;;;32.47;25.37;;;19.50;50.30;;;;;;10837054;32;20058;-69
2022/03/25 11:35:16;;;;;;;26.83;19.33;;;19.80;49.00;;;;;;10869755;32;20024;-68
2022/03/25 11:41:24;;;;;;;39.55;29.87;;;20.10;49.40;;;;;;10869678;32;20071;-70
2022/03/25 11:47:26;;;;;;;35.87;24.83;;;20.40;46.80;;;;;;10868542;32;20038;-69
2022/03/25 11:53:30;;;;;;;26.67;21.77;;;20.50;45.10;;;;;;10866199;32;20493;-69
2022/03/25 11:59:55;;;;;;;32.85;23.65;;;20.70;45.80;;;;;;10868858;32;20012;-69
2022/03/25 12:05:59;;;;;;;19.92;14.68;;;20.90;46.00;;;;;;10861022;32;20347;-68
2022/03/25 12:12:01;;;;;;;32.58;25.95;;;21.00;45.30;;;;;;10841826;32;20349;-69
2022/03/25 12:18:39;;;;;;;30.40;18.75;;;21.20;44.00;;;;;;10851158;32;20078;-68
2022/03/25 12:24:41;;;;;;;45.40;28.80;;;21.30;43.40;;;;;;10860697;32;20027;-68
2022/03/25 12:30:43;;;;;;;24.42;18.77;;;21.50;41.70;;;;;;10867470;32;20054;-69
2022/03/25 12:37:10;;;;;;;23.95;16.85;;;21.40;42.00;;;;;;10867465;32;20031;-69
2022/03/25 12:43:12;;;;;;;34.38;23.58;;;21.60;40.30;;;;;;10863381;32;20328;-68
2022/03/25 12:49:14;;;;;;;24.25;17.52;;;21.60;38.50;;;;;;10867392;32;20032;-69
2022/03/25 12:55:16;;;;;;;24.48;16.62;;;21.60;38.70;;;;;;10863169;32;20028;-69
2022/03/25 13:01:19;;;;;;;22.27;14.27;;;21.60;38.70;;;;;;10867049;32;20062;-69
2022/03/25 13:07:21;;;;;;;21.45;16.33;;;21.70;38.30;;;;;;10866489;32;20061;-69
2022/03/25 13:13:28;;;;;;;26.10;18.95;;;21.80;38.10;;;;;;10862613;32;20031;-68
2022/03/25 13:19:31;;;;;;;36.40;25.17;;;21.90;37.90;;;;;;10866671;32;20400;-69
2022/03/25 13:25:36;;;;;;;29.80;21.55;;;21.90;36.20;;;;;;10866436;32;20050;-69
2022/03/25 13:31:38;;;;;;;20.27;17.02;;;21.80;35.40;;;;;;10866352;32;20400;-69
2022/03/25 13:37:40;;;;;;;22.42;16.75;;;21.80;35.60;;;;;;10861712;32;20035;-69
2022/03/25 13:43:45;;;;;;;23.25;16.77;;;22.00;36.60;;;;;;10866281;32;20058;-70
2022/03/25 13:49:47;;;;;;;20.88;15.88;;;22.20;36.20;;;;;;10872470;32;20046;-69
2022/03/25 13:55:49;;;;;;;22.83;16.48;;;22.30;36.40;;;;;;10873437;32;20054;-69
2022/03/25 14:01:51;;;;;;;31.10;25.02;;;22.50;36.10;;;;;;10867195;32;20039;-69
2022/03/25 14:07:58;;;;;;;33.50;24.87;;;22.50;34.30;;;;;;10847076;32;20035;-69
2022/03/25 14:14:03;;;;;;;31.75;21.83;;;22.40;35.40;;;;;;10849955;32;20035;-69
2022/03/25 14:20:18;;;;;;;40.22;26.73;;;22.50;35.30;;;;;;10841456;32;20058;-68
2022/03/25 14:26:20;;;;;;;25.98;20.80;;;22.50;33.70;;;;;;10852155;32;20360;-69
2022/03/25 14:32:22;;;;;;;27.67;17.45;;;22.50;34.00;;;;;;10849772;32;20051;-69
2022/03/25 14:38:24;;;;;;;21.75;16.12;;;22.80;34.30;;;;;;10834180;32;20050;-69
2022/03/25 14:44:27;;;;;;;28.30;19.90;;;23.00;33.90;;;;;;10867284;32;20058;-69
2022/03/25 14:50:30;;;;;;;30.58;16.52;;;23.00;32.50;;;;;;10869589;32;20079;-69
2022/03/25 14:56:34;;;;;;;27.52;20.45;;;23.10;32.60;;;;;;10869949;32;20055;-68
2022/03/25 15:02:37;;;;;;;25.48;18.90;;;23.30;32.40;;;;;;10869430;32;20031;-69
2022/03/25 15:08:41;;;;;;;32.13;20.98;;;23.30;32.30;;;;;;10835783;32;20059;-69
2022/03/25 15:14:43;;;;;;;27.67;20.25;;;23.60;32.30;;;;;;10832331;32;20055;-70
2022/03/25 15:20:45;;;;;;;21.33;15.18;;;23.40;31.60;;;;;;10887706;27;20095;-69
2022/03/25 15:26:48;;;;;;;17.55;14.25;;;23.60;31.90;;;;;;10909725;32;20058;-69
2022/03/25 15:39:10;;;;;;;31.87;22.50;;;24.30;31.30;;;;;;10906287;32;20028;-70
2022/03/25 15:45:13;;;;;;;27.13;18.40;;;24.90;31.60;;;;;;10905739;32;20046;-69
2022/03/25 15:51:15;;;;;;;34.92;25.77;;;25.10;33.10;;;;;;10905541;32;20057;-69
2022/03/25 15:57:19;;;;;;;24.52;18.25;;;25.30;34.50;;;;;;10898953;32;20023;-69
2022/03/25 16:03:21;;;;;;;32.78;18.90;;;25.30;35.00;;;;;;10898656;32;20451;-70
2022/03/25 16:09:23;;;;;;;27.52;16.40;;;25.00;36.20;;;;;;10865393;32;20408;-69
2022/03/25 16:15:26;;;;;;;21.50;15.43;;;25.10;36.30;;;;;;10895044;32;20114;-69
2022/03/25 16:21:28;;;;;;;17.05;12.07;;;25.30;35.80;;;;;;10893493;32;20061;-69
2022/03/25 16:27:30;;;;;;;17.55;11.23;;;25.60;35.60;;;;;;10902535;32;20058;-70
2022/03/25 16:33:32;;;;;;;18.90;10.68;;;25.70;35.70;;;;;;10894654;32;20427;-70
2022/03/25 16:39:35;;;;;;;12.65;9.55;;;25.70;35.90;;;;;;10889919;32;20035;-69
2022/03/25 16:45:38;;;;;;;17.42;8.90;;;25.30;36.90;;;;;;10903177;32;20359;-70
2022/03/25 16:51:40;;;;;;;13.57;8.15;;;24.60;37.90;;;;;;10903649;32;20046;-70
2022/03/25 16:57:44;;;;;;;14.98;8.27;;;24.40;37.90;;;;;;10899127;32;20054;-69
2022/03/25 17:03:49;;;;;;;12.55;7.47;;;23.90;38.40;;;;;;10879596;32;20028;-70
2022/03/25 17:09:52;;;;;;;12.40;6.90;;;23.30;39.10;;;;;;10891770;32;20023;-70
2022/03/25 17:15:54;;;;;;;8.07;5.60;;;22.60;40.20;;;;;;10900901;32;20065;-69
2022/03/25 17:21:56;;;;;;;11.10;6.50;;;21.90;41.10;;;;;;10931617;32;20058;-69
2022/03/25 17:27:58;;;;;;;12.65;6.03;;;21.30;41.90;;;;;;10932589;32;20035;-69
2022/03/25 17:34:00;;;;;;;12.70;6.05;;;20.90;42.60;;;;;;10907964;32;20057;-69
2022/03/25 17:40:05;;;;;;;10.77;5.47;;;20.60;43.40;;;;;;10910611;32;20043;-69
2022/03/25 17:46:07;;;;;;;6.40;4.20;;;20.30;44.20;;;;;;10910837;32;20339;-69
2022/03/25 17:52:13;;;;;;;8.25;4.95;;;20.10;44.90;;;;;;10910565;32;20085;-68
2022/03/25 17:58:20;;;;;;;6.75;4.03;;;19.90;45.60;;;;;;10910380;32;20097;-68
2022/03/25 18:04:22;;;;;;;9.63;5.43;;;19.70;46.20;;;;;;10910491;32;20031;-69
2022/03/25 18:10:24;;;;;;;7.60;5.97;;;19.50;46.90;;;;;;10909971;32;20023;-68
2022/03/25 18:16:28;;;;;;;7.20;5.28;;;19.50;47.50;;;;;;10883784;32;20031;-69
2022/03/25 18:22:30;;;;;;;10.27;7.22;;;19.30;48.20;;;;;;10891960;32;20058;-69
2022/03/25 18:28:32;;;;;;;9.57;6.80;;;19.10;48.70;;;;;;10909548;32;20023;-69
2022/03/25 18:34:35;;;;;;;11.23;8.02;;;18.90;49.30;;;;;;10908925;32;20042;-69
2022/03/25 18:40:37;;;;;;;11.07;7.85;;;18.80;49.80;;;;;;10909202;32;20400;-69
2022/03/25 18:46:40;;;;;;;9.98;8.25;;;18.70;50.40;;;;;;10909705;32;20081;-70
2022/03/25 18:52:42;;;;;;;28.48;8.70;;;18.50;50.70;;;;;;10908626;32;20050;-70
2022/03/25 18:58:45;;;;;;;15.45;9.90;;;18.30;51.20;;;;;;10891928;32;20015;-71
2022/03/25 19:04:47;;;;;;;12.10;8.95;;;18.20;51.50;;;;;;10908440;32;20031;-71
2022/03/25 19:10:52;;;;;;;16.75;9.82;;;18.10;51.90;;;;;;10908903;32;20038;-71
2022/03/25 19:16:54;;;;;;;14.00;8.90;;;18.00;52.20;;;;;;10908336;32;20023;-71
2022/03/25 19:22:56;;;;;;;9.73;7.28;;;17.90;52.50;;;;;;10908237;32;20066;-71
2022/03/25 19:28:59;;;;;;;13.82;10.55;;;17.70;52.80;;;;;;10907949;32;20020;-71
2022/03/25 19:35:02;;;;;;;12.98;8.40;;;17.40;53.40;;;;;;10907288;32;20011;-71
2022/03/25 19:41:05;;;;;;;18.52;10.77;;;17.50;53.60;;;;;;10907468;32;20027;-71
2022/03/25 19:47:07;;;;;;;14.15;10.27;;;17.40;53.90;;;;;;10906331;32;20041;-71
2022/03/25 19:53:09;;;;;;;9.07;6.75;;;17.40;54.00;;;;;;10906972;32;20055;-71
2022/03/25 19:59:11;;;;;;;11.38;8.40;;;17.30;54.30;;;;;;10893370;32;20053;-71
2022/03/25 20:05:14;;;;;;;10.75;7.60;;;17.30;54.40;;;;;;10906644;32;20027;-71
2022/03/25 20:11:17;;;;;;;20.90;13.13;;;17.10;54.80;;;;;;10901909;32;20317;-71
2022/03/25 20:17:20;;;;;;;18.48;10.85;;;16.90;55.00;;;;;;10905643;32;20390;-71
2022/03/25 20:23:22;;;;;;;46.20;12.13;;;16.90;55.30;;;;;;10905478;32;20027;-71
2022/03/25 20:29:26;;;;;;;16.58;10.38;;;16.90;55.30;;;;;;10887467;32;20069;-71
2022/03/25 20:35:29;;;;;;;17.98;11.80;;;16.90;55.50;;;;;;10904938;32;20031;-72
2022/03/25 20:41:32;;;;;;;16.87;10.15;;;16.80;55.60;;;;;;10904586;32;20027;-71
2022/03/25 20:47:34;;;;;;;14.02;9.32;;;16.80;55.90;;;;;;10902834;32;20045;-71
2022/03/25 20:53:37;;;;;;;11.73;8.00;;;16.70;56.00;;;;;;10904330;32;20085;-71
2022/03/25 20:59:39;;;;;;;15.00;9.63;;;16.60;56.30;;;;;;10904690;32;20008;-71
2022/03/25 21:05:41;;;;;;;12.65;11.20;;;16.50;56.50;;;;;;10904216;32;20058;-72
2022/03/25 21:11:43;;;;;;;12.18;9.57;;;16.60;56.70;;;;;;10904079;32;20440;-69
2022/03/25 21:17:45;;;;;;;12.82;7.85;;;16.50;56.80;;;;;;10903856;32;20027;-69
2022/03/25 21:23:48;;;;;;;11.88;8.40;;;16.40;57.10;;;;;;10903523;32;20061;-69
2022/03/25 21:29:50;;;;;;;10.10;7.87;;;16.40;57.20;;;;;;10903904;32;20363;-69
2022/03/25 21:35:52;;;;;;;13.30;8.73;;;16.30;57.40;;;;;;10903910;32;20018;-71
2022/03/25 21:41:55;;;;;;;11.77;8.73;;;16.30;57.60;;;;;;10903867;32;20031;-71
2022/03/25 21:47:57;;;;;;;13.23;8.73;;;16.30;57.70;;;;;;10904077;32;20407;-71
2022/03/25 21:53:59;;;;;;;14.68;10.43;;;16.30;57.80;;;;;;10903769;32;20079;-71
2022/03/25 22:00:03;;;;;;;13.15;7.65;;;16.20;58.10;;;;;;10903713;32;20395;-71
2022/03/25 22:06:13;;;;;;;13.02;10.50;;;16.10;58.50;;;;;;10904512;32;20324;-71
2022/03/25 22:12:15;;;;;;;12.32;8.93;;;15.90;60.00;;;;;;10906409;32;20027;-71
2022/03/25 22:18:17;;;;;;;16.37;11.77;;;15.80;60.30;;;;;;10910406;32;20031;-71
2022/03/25 22:24:19;;;;;;;14.15;10.27;;;15.80;59.90;;;;;;10910255;32;20070;-71
2022/03/25 22:30:22;;;;;;;14.48;10.65;;;15.60;59.80;;;;;;10905763;32;20051;-71
2022/03/25 22:36:28;;;;;;;16.92;11.93;;;15.50;60.00;;;;;;10909964;32;20058;-71
2022/03/25 22:42:31;;;;;;;15.70;11.20;;;15.40;60.30;;;;;;10905501;32;20050;-72
2022/03/25 22:48:33;;;;;;;14.63;10.13;;;15.10;60.40;;;;;;10909465;32;20027;-71
2022/03/25 22:54:35;;;;;;;13.32;9.88;;;15.10;60.70;;;;;;10909328;32;20038;-71
2022/03/25 23:01:00;;;;;;;17.05;10.10;;;15.00;60.90;;;;;;10909041;32;20404;-71
2022/03/25 23:07:02;;;;;;;13.32;9.25;;;14.90;61.10;;;;;;10908609;32;20031;-71
2022/03/25 23:13:05;;;;;;;17.73;13.07;;;14.80;61.40;;;;;;10908509;32;20023;-71
2022/03/25 23:19:08;;;;;;;15.55;11.95;;;14.80;61.40;;;;;;10911493;27;20023;-71
2022/03/25 23:25:10;;;;;;;17.45;12.73;;;14.80;61.60;;;;;;10905745;32;20047;-71
2022/03/25 23:31:13;;;;;;;12.95;9.00;;;14.70;61.70;;;;;;10907872;32;20023;-71
2022/03/25 23:37:15;;;;;;;15.77;10.93;;;14.70;61.90;;;;;;10907621;32;20019;-71
2022/03/25 23:43:17;;;;;;;15.82;10.77;;;14.60;62.10;;;;;;10907432;32;20052;-71
2022/03/25 23:49:19;;;;;;;17.95;12.40;;;14.50;62.30;;;;;;10903791;32;20414;-71
2022/03/25 23:55:27;;;;;;;15.10;9.30;;;14.50;62.50;;;;;;10907110;32;20035;-71
